createdAt,value
2022-11-25T13:38:30.251Z,46.30
2022-11-25T13:41:26.764Z,50.00
2022-11-25T13:44:02.405Z,41.97
2022-11-25T13:46:40.097Z,55.33
2022-11-25T13:49:35.848Z,37.13
2022-11-25T13:52:25.603Z,22.60
2022-11-25T13:54:56.077Z,26.67
2022-11-25T13:57:31.570Z,36.87
2022-11-25T14:00:02.535Z,13.27
2022-11-25T14:02:45.527Z,18.90
2022-11-25T14:08:21.746Z,8.93
2022-11-25T14:11:01.457Z,8.90
2022-11-25T14:14:00.672Z,9.17
2022-11-25T14:16:50.946Z,10.27
2022-11-25T14:19:52.940Z,13.73
2022-11-25T14:22:36.793Z,12.17
2022-11-25T14:25:17.970Z,14.33
2022-11-25T14:27:49.256Z,15.37
2022-11-25T14:30:19.396Z,14.27
2022-11-25T14:32:57.961Z,11.43
2022-11-25T14:35:31.963Z,14.83
2022-11-25T14:38:05.189Z,14.37
2022-11-25T14:40:40.220Z,26.43
2022-11-25T14:43:14.283Z,24.60
2022-11-25T14:45:43.267Z,13.60
2022-11-25T14:48:15.677Z,13.47
2022-11-25T14:51:00.925Z,16.90
2022-11-25T14:53:30.635Z,23.07
2022-11-25T14:56:03.407Z,26.73
2022-11-25T14:58:32.803Z,20.07
2022-11-25T15:01:05.781Z,22.70
2022-11-25T15:03:35.194Z,21.87
2022-11-25T15:06:07.278Z,22.53
2022-11-25T15:08:41.788Z,31.43
2022-11-25T15:11:18.143Z,41.37
2022-11-25T15:13:49.069Z,54.63
2022-11-25T15:16:21.355Z,62.83
2022-11-25T15:18:53.169Z,72.77
2022-11-25T15:22:14.528Z,61.87
2022-11-25T15:24:33.916Z,49.30
2022-11-25T15:27:05.009Z,46.87
2022-11-25T15:29:43.039Z,40.10
2022-11-25T15:32:18.213Z,39.70
2022-11-25T15:34:48.161Z,39.90
2022-11-25T15:37:35.906Z,46.60
2022-11-25T15:40:32.959Z,55.20
2022-11-25T15:43:06.874Z,64.07
2022-11-25T15:45:45.150Z,58.93
2022-11-25T15:48:20.418Z,52.90
2022-11-25T15:50:49.371Z,54.63
2022-11-25T15:53:30.237Z,59.93
2022-11-25T15:56:03.251Z,59.37
2022-11-25T15:58:33.939Z,49.30
2022-11-25T16:01:04.663Z,67.35
2022-11-25T16:03:35.712Z,73.80
2022-11-25T16:06:19.801Z,70.17
2022-11-25T16:08:55.107Z,64.50
2022-11-25T16:13:56.520Z,81.70
2022-11-25T16:16:30.720Z,67.30
2022-11-25T16:19:22.641Z,50.40
2022-11-25T16:21:57.916Z,37.80
2022-11-25T16:24:36.617Z,48.80
2022-11-25T16:27:08.571Z,48.40
2022-11-25T16:29:41.691Z,59.60
2022-11-25T16:32:31.640Z,50.17
2022-11-25T16:35:13.331Z,43.07
2022-11-25T16:37:47.024Z,34.77
2022-11-25T16:40:19.081Z,34.37
2022-11-25T16:42:50.716Z,38.60
2022-11-25T16:45:23.336Z,36.67
2022-11-25T16:47:52.572Z,38.97
2022-11-25T16:50:22.663Z,38.73
2022-11-25T16:52:51.616Z,63.67
2022-11-25T16:55:20.662Z,39.37
2022-11-25T16:57:49.609Z,40.95
2022-11-25T17:00:21.135Z,43.65
2022-11-25T17:02:49.972Z,36.70
2022-11-25T17:05:20.627Z,36.37
2022-11-25T17:07:50.505Z,36.93
2022-11-25T17:10:20.409Z,44.10
2022-11-25T17:12:50.409Z,37.37
2022-11-25T17:15:24.714Z,34.57
2022-11-25T17:17:54.012Z,35.70
2022-11-25T17:20:25.987Z,37.00
2022-11-25T17:22:55.751Z,37.33
2022-11-25T17:25:27.595Z,52.13
2022-11-25T17:28:01.462Z,44.67
2022-11-25T17:30:50.445Z,41.60
2022-11-25T17:33:21.409Z,58.13
2022-11-25T17:35:50.580Z,42.50
2022-11-25T17:38:21.581Z,46.50
2022-11-25T17:40:51.170Z,41.23
2022-11-25T17:43:21.503Z,40.97
2022-11-25T17:45:51.901Z,42.27
2022-11-25T17:48:20.848Z,44.80
2022-11-25T17:50:49.631Z,43.40
2022-11-25T17:53:18.593Z,43.10
2022-11-25T17:55:47.459Z,49.73
2022-11-25T17:58:19.365Z,42.30
2022-11-25T18:00:49.036Z,47.60
2022-11-25T18:03:19.978Z,48.53
2022-11-25T18:06:08.252Z,62.00
2022-11-25T18:08:37.370Z,50.03
2022-11-25T18:11:07.962Z,46.90
2022-11-25T18:13:40.305Z,41.37
2022-11-25T18:16:09.967Z,43.10
2022-11-25T18:18:40.717Z,49.20
2022-11-25T18:21:11.624Z,46.70
2022-11-25T18:23:40.815Z,39.13
2022-11-25T18:26:12.918Z,34.93
2022-11-25T18:28:42.658Z,43.23
2022-11-25T18:31:30.451Z,41.03
2022-11-25T18:34:00.841Z,39.13
2022-11-25T18:36:29.911Z,41.23
2022-11-25T18:38:58.621Z,37.33
2022-11-25T18:41:27.562Z,38.37
2022-11-25T18:44:04.006Z,40.57
2022-11-25T18:46:37.551Z,41.17
2022-11-25T18:49:14.191Z,56.40
2022-11-25T18:51:44.231Z,49.43
2022-11-25T18:54:13.054Z,43.57
2022-11-25T18:56:43.253Z,40.80
2022-11-25T18:59:17.848Z,50.57
2022-11-25T19:01:49.857Z,40.40
2022-11-25T19:04:21.118Z,44.77
2022-11-25T19:06:50.107Z,38.13
2022-11-25T19:09:20.098Z,36.80
2022-11-25T19:11:53.039Z,31.90
2022-11-25T19:14:31.510Z,35.20
2022-11-25T19:17:04.702Z,45.23
2022-11-25T19:19:37.863Z,37.07
2022-11-25T19:22:12.343Z,30.47
2022-11-25T19:24:41.608Z,42.10
2022-11-25T19:27:19.010Z,42.95
2022-11-25T19:29:48.777Z,47.30
2022-11-25T19:32:23.461Z,50.85
2022-11-25T19:34:58.736Z,53.20
2022-11-25T19:37:30.372Z,46.43
2022-11-25T19:39:59.560Z,42.63
2022-11-25T19:42:31.895Z,31.90
2022-11-25T19:45:00.894Z,28.60
2022-11-25T19:47:30.324Z,25.85
2022-11-25T19:55:24.690Z,22.90
2022-11-25T20:00:24.977Z,28.90
2022-11-25T20:08:15.134Z,22.30
2022-11-25T20:10:44.879Z,22.80
2022-11-25T20:13:13.958Z,24.27
2022-11-25T20:15:43.939Z,26.13
2022-11-25T20:18:18.375Z,27.93
2022-11-25T20:20:51.710Z,28.20
2022-11-25T20:23:44.480Z,27.57
2022-11-25T20:26:19.283Z,29.40
2022-11-25T20:28:48.789Z,31.37
2022-11-25T20:31:17.629Z,37.53
2022-11-25T20:33:48.644Z,50.13
2022-11-25T20:36:22.589Z,80.97
2022-11-25T20:38:54.949Z,82.50
2022-11-25T20:41:27.910Z,70.23
2022-11-25T20:44:01.026Z,61.30
2022-11-25T20:46:31.111Z,57.27
2022-11-25T20:49:02.595Z,53.77
2022-11-25T20:51:33.296Z,53.95
2022-11-25T20:54:03.017Z,53.70
2022-11-25T20:56:50.649Z,53.00
2022-11-25T20:59:22.737Z,101.33
2022-11-25T21:02:10.017Z,79.93
2022-11-25T21:04:39.376Z,112.17
2022-11-25T21:07:16.094Z,120.43
2022-11-25T21:09:45.751Z,96.63
2022-11-25T21:12:19.240Z,84.60
2022-11-25T21:14:48.882Z,86.57
2022-11-25T21:17:17.803Z,92.57
2022-11-25T21:19:46.943Z,95.73
2022-11-25T21:22:17.627Z,92.13
2022-11-25T21:25:06.828Z,75.70
2022-11-25T21:27:36.267Z,65.97
2022-11-25T21:30:05.832Z,72.83
2022-11-25T21:32:35.956Z,79.87
2022-11-25T21:35:05.630Z,76.20
2022-11-25T21:37:38.005Z,78.60
2022-11-25T21:40:08.570Z,107.13
2022-11-25T21:42:38.353Z,115.83
2022-11-25T21:45:08.250Z,120.73
2022-11-25T21:47:37.299Z,97.73
2022-11-25T21:50:13.927Z,115.03
2022-11-25T21:52:44.408Z,82.47
2022-11-25T21:55:14.196Z,63.00
2022-11-25T21:57:43.448Z,51.00
2022-11-25T22:00:21.957Z,49.33
2022-11-25T22:02:50.845Z,48.40
2022-11-25T22:05:21.722Z,51.53
2022-11-25T22:07:52.255Z,54.07
2022-11-25T22:10:21.221Z,57.00
2022-11-25T22:12:50.129Z,57.27
2022-11-25T22:15:23.024Z,54.10
2022-11-25T22:17:57.096Z,52.10
2022-11-25T22:20:29.415Z,47.90
2022-11-25T22:22:59.757Z,45.03
2022-11-25T22:25:31.575Z,44.63
2022-11-25T22:28:00.478Z,46.53
2022-11-25T22:30:29.309Z,44.03
2022-11-25T22:33:02.577Z,45.90
2022-11-25T22:35:31.759Z,42.43
2022-11-25T22:38:02.283Z,43.17
2022-11-25T22:40:31.205Z,41.00
2022-11-25T22:43:21.222Z,41.70
2022-11-25T22:45:50.617Z,42.47
2022-11-25T22:48:23.460Z,37.87
2022-11-25T22:50:52.408Z,44.00
2022-11-25T22:53:22.699Z,40.17
2022-11-25T22:55:51.615Z,40.17
2022-11-25T22:58:20.659Z,39.07
2022-11-25T23:00:49.873Z,39.07
2022-11-25T23:03:21.515Z,37.80
2022-11-25T23:05:52.092Z,38.40
2022-11-25T23:08:24.993Z,39.17
2022-11-25T23:10:54.866Z,35.07
2022-11-25T23:13:24.302Z,37.30
2022-11-25T23:15:55.887Z,40.55
2022-11-25T23:18:29.580Z,38.10
2022-11-25T23:21:00.632Z,45.20
2022-11-25T23:23:31.283Z,60.90
2022-11-25T23:26:00.615Z,73.80
2022-11-25T23:28:29.389Z,60.63
2022-11-25T23:31:00.099Z,56.60
2022-11-25T23:33:32.136Z,48.67
2022-11-25T23:36:06.206Z,46.90
2022-11-25T23:38:43.563Z,43.53
2022-11-25T23:41:33.254Z,43.53
2022-11-25T23:44:07.521Z,45.17
2022-11-25T23:46:37.920Z,41.77
2022-11-25T23:49:13.407Z,49.57
2022-11-25T23:51:42.449Z,45.17
2022-11-25T23:54:15.671Z,46.67
2022-11-25T23:56:44.650Z,45.10
2022-11-25T23:59:15.325Z,44.65
